sensor_id;sensor_type;location;lat;lon;timestamp;P1;durP1;ratioP1;P2;durP2;ratioP2
40623;SDS011;26325;48.594;11.650;2023-07-30T00:02:08;3.70;;;2.80;;
40623;SDS011;26325;48.594;11.650;2023-07-30T00:04:33;3.58;;;2.80;;
40623;SDS011;26325;48.594;11.650;2023-07-30T00:07:01;3.00;;;2.70;;
40623;SDS011;26325;48.594;11.650;2023-07-30T00:09:26;2.83;;;2.60;;
40623;SDS011;26325;48.594;11.650;2023-07-30T00:11:52;2.58;;;2.38;;
40623;SDS011;26325;48.594;11.650;2023-07-30T00:14:18;2.70;;;2.50;;
40623;SDS011;26325;48.594;11.650;2023-07-30T00:16:43;2.95;;;2.70;;
40623;SDS011;26325;48.594;11.650;2023-07-30T00:19:09;2.67;;;2.47;;
40623;SDS011;26325;48.594;11.650;2023-07-30T00:21:35;2.85;;;2.65;;
40623;SDS011;26325;48.594;11.650;2023-07-30T00:24:01;2.58;;;2.38;;
40623;SDS011;26325;48.594;11.650;2023-07-30T00:26:27;2.60;;;2.40;;
40623;SDS011;26325;48.594;11.650;2023-07-30T00:28:53;2.35;;;2.25;;
40623;SDS011;26325;48.594;11.650;2023-07-30T00:31:19;2.40;;;2.30;;
40623;SDS011;26325;48.594;11.650;2023-07-30T00:33:45;2.58;;;2.40;;
40623;SDS011;26325;48.594;11.650;2023-07-30T00:38:36;2.80;;;2.60;;
40623;SDS011;26325;48.594;11.650;2023-07-30T00:41:01;2.55;;;2.35;;
40623;SDS011;26325;48.594;11.650;2023-07-30T00:43:27;2.88;;;2.30;;
40623;SDS011;26325;48.594;11.650;2023-07-30T00:45:52;2.55;;;2.38;;
40623;SDS011;26325;48.594;11.650;2023-07-30T00:48:18;2.58;;;2.40;;
40623;SDS011;26325;48.594;11.650;2023-07-30T00:50:46;2.67;;;2.45;;
40623;SDS011;26325;48.594;11.650;2023-07-30T00:53:13;2.10;;;2.00;;
40623;SDS011;26325;48.594;11.650;2023-07-30T00:55:40;2.47;;;2.28;;
40623;SDS011;26325;48.594;11.650;2023-07-30T00:58:06;2.50;;;2.30;;
40623;SDS011;26325;48.594;11.650;2023-07-30T01:00:31;2.20;;;2.10;;
40623;SDS011;26325;48.594;11.650;2023-07-30T01:02:57;2.88;;;2.55;;
40623;SDS011;26325;48.594;11.650;2023-07-30T01:05:23;2.67;;;2.47;;
40623;SDS011;26325;48.594;11.650;2023-07-30T01:07:51;2.78;;;2.60;;
40623;SDS011;26325;48.594;11.650;2023-07-30T01:10:16;2.60;;;2.40;;
40623;SDS011;26325;48.594;11.650;2023-07-30T01:12:42;2.70;;;2.50;;
40623;SDS011;26325;48.594;11.650;2023-07-30T01:15:11;3.00;;;2.60;;
40623;SDS011;26325;48.594;11.650;2023-07-30T01:17:38;2.78;;;2.58;;
40623;SDS011;26325;48.594;11.650;2023-07-30T01:20:05;2.58;;;2.38;;
40623;SDS011;26325;48.594;11.650;2023-07-30T01:22:30;2.45;;;2.15;;
40623;SDS011;26325;48.594;11.650;2023-07-30T01:24:56;2.58;;;2.38;;
40623;SDS011;26325;48.594;11.650;2023-07-30T01:27:33;4.07;;;2.53;;
40623;SDS011;26325;48.594;11.650;2023-07-30T01:30:25;3.25;;;2.30;;
40623;SDS011;26325;48.594;11.650;2023-07-30T01:32:52;2.28;;;2.17;;
40623;SDS011;26325;48.594;11.650;2023-07-30T01:35:23;2.33;;;2.20;;
40623;SDS011;26325;48.594;11.650;2023-07-30T01:37:51;2.30;;;2.20;;
40623;SDS011;26325;48.594;11.650;2023-07-30T01:40:18;2.13;;;1.90;;
40623;SDS011;26325;48.594;11.650;2023-07-30T01:42:45;2.15;;;2.05;;
40623;SDS011;26325;48.594;11.650;2023-07-30T01:45:10;2.13;;;2.03;;
40623;SDS011;26325;48.594;11.650;2023-07-30T01:47:36;2.00;;;1.90;;
40623;SDS011;26325;48.594;11.650;2023-07-30T01:50:01;2.28;;;2.17;;
40623;SDS011;26325;48.594;11.650;2023-07-30T01:52:27;2.22;;;2.13;;
40623;SDS011;26325;48.594;11.650;2023-07-30T01:54:53;2.45;;;2.25;;
40623;SDS011;26325;48.594;11.650;2023-07-30T01:57:21;2.65;;;2.30;;
40623;SDS011;26325;48.594;11.650;2023-07-30T01:59:49;2.35;;;2.25;;
40623;SDS011;26325;48.594;11.650;2023-07-30T02:02:14;3.85;;;2.28;;
40623;SDS011;26325;48.594;11.650;2023-07-30T02:04:40;2.30;;;2.10;;
40623;SDS011;26325;48.594;11.650;2023-07-30T02:07:05;2.40;;;2.30;;
40623;SDS011;26325;48.594;11.650;2023-07-30T02:09:31;2.65;;;2.47;;
40623;SDS011;26325;48.594;11.650;2023-07-30T02:11:56;3.88;;;2.90;;
40623;SDS011;26325;48.594;11.650;2023-07-30T02:14:22;5.45;;;3.40;;
40623;SDS011;26325;48.594;11.650;2023-07-30T02:16:48;6.72;;;3.42;;
40623;SDS011;26325;48.594;11.650;2023-07-30T02:19:13;3.35;;;2.83;;
40623;SDS011;26325;48.594;11.650;2023-07-30T02:21:39;2.80;;;2.60;;
40623;SDS011;26325;48.594;11.650;2023-07-30T02:24:11;2.75;;;2.42;;
40623;SDS011;26325;48.594;11.650;2023-07-30T02:26:40;2.63;;;2.40;;
40623;SDS011;26325;48.594;11.650;2023-07-30T02:29:05;2.10;;;2.00;;
40623;SDS011;26325;48.594;11.650;2023-07-30T02:31:31;2.30;;;2.10;;
40623;SDS011;26325;48.594;11.650;2023-07-30T02:33:59;2.30;;;2.10;;
40623;SDS011;26325;48.594;11.650;2023-07-30T02:36:25;2.58;;;2.13;;
40623;SDS011;26325;48.594;11.650;2023-07-30T02:38:50;2.42;;;2.22;;
40623;SDS011;26325;48.594;11.650;2023-07-30T02:41:16;2.40;;;2.20;;
40623;SDS011;26325;48.594;11.650;2023-07-30T02:43:44;2.05;;;1.90;;
40623;SDS011;26325;48.594;11.650;2023-07-30T02:46:12;2.17;;;2.00;;
40623;SDS011;26325;48.594;11.650;2023-07-30T02:48:38;2.38;;;2.17;;
40623;SDS011;26325;48.594;11.650;2023-07-30T02:51:04;2.40;;;2.20;;
40623;SDS011;26325;48.594;11.650;2023-07-30T02:53:29;1.80;;;1.70;;
40623;SDS011;26325;48.594;11.650;2023-07-30T02:55:55;2.03;;;1.90;;
40623;SDS011;26325;48.594;11.650;2023-07-30T02:58:20;1.80;;;1.67;;
40623;SDS011;26325;48.594;11.650;2023-07-30T03:03:11;1.77;;;1.65;;
40623;SDS011;26325;48.594;11.650;2023-07-30T03:05:40;1.65;;;1.55;;
40623;SDS011;26325;48.594;11.650;2023-07-30T03:08:09;1.52;;;1.42;;
40623;SDS011;26325;48.594;11.650;2023-07-30T03:10:36;1.95;;;1.60;;
40623;SDS011;26325;48.594;11.650;2023-07-30T03:13:02;1.50;;;1.40;;
40623;SDS011;26325;48.594;11.650;2023-07-30T03:15:28;1.83;;;1.30;;
40623;SDS011;26325;48.594;11.650;2023-07-30T03:20:19;1.40;;;1.30;;
40623;SDS011;26325;48.594;11.650;2023-07-30T03:22:44;2.15;;;1.40;;
40623;SDS011;26325;48.594;11.650;2023-07-30T03:25:12;1.40;;;1.30;;
40623;SDS011;26325;48.594;11.650;2023-07-30T03:27:40;1.60;;;1.50;;
40623;SDS011;26325;48.594;11.650;2023-07-30T03:30:11;1.40;;;1.30;;
40623;SDS011;26325;48.594;11.650;2023-07-30T03:32:36;2.45;;;1.40;;
40623;SDS011;26325;48.594;11.650;2023-07-30T03:35:02;1.45;;;1.35;;
40623;SDS011;26325;48.594;11.650;2023-07-30T03:37:28;1.52;;;1.30;;
40623;SDS011;26325;48.594;11.650;2023-07-30T03:42:21;1.45;;;1.35;;
40623;SDS011;26325;48.594;11.650;2023-07-30T03:44:46;1.33;;;1.23;;
40623;SDS011;26325;48.594;11.650;2023-07-30T03:47:12;1.42;;;1.30;;
40623;SDS011;26325;48.594;11.650;2023-07-30T03:49:42;3.20;;;1.40;;
40623;SDS011;26325;48.594;11.650;2023-07-30T03:52:08;1.73;;;1.17;;
40623;SDS011;26325;48.594;11.650;2023-07-30T03:54:33;1.45;;;1.35;;
40623;SDS011;26325;48.594;11.650;2023-07-30T03:57:01;1.50;;;1.40;;
40623;SDS011;26325;48.594;11.650;2023-07-30T03:59:27;1.40;;;1.30;;
40623;SDS011;26325;48.594;11.650;2023-07-30T04:01:53;1.80;;;1.30;;
40623;SDS011;26325;48.594;11.650;2023-07-30T04:04:19;1.52;;;1.20;;
40623;SDS011;26325;48.594;11.650;2023-07-30T04:06:45;1.55;;;1.42;;
40623;SDS011;26325;48.594;11.650;2023-07-30T04:09:12;1.40;;;1.30;;
40623;SDS011;26325;48.594;11.650;2023-07-30T04:11:40;1.88;;;1.58;;
40623;SDS011;26325;48.594;11.650;2023-07-30T04:14:06;1.50;;;1.40;;
40623;SDS011;26325;48.594;11.650;2023-07-30T04:16:34;2.15;;;1.58;;
40623;SDS011;26325;48.594;11.650;2023-07-30T04:19:02;1.60;;;1.50;;
40623;SDS011;26325;48.594;11.650;2023-07-30T04:21:27;1.40;;;1.30;;
40623;SDS011;26325;48.594;11.650;2023-07-30T04:23:53;1.40;;;1.30;;
40623;SDS011;26325;48.594;11.650;2023-07-30T04:26:18;1.58;;;1.48;;
40623;SDS011;26325;48.594;11.650;2023-07-30T04:28:44;1.70;;;1.60;;
40623;SDS011;26325;48.594;11.650;2023-07-30T04:31:12;1.80;;;1.70;;
40623;SDS011;26325;48.594;11.650;2023-07-30T04:33:37;1.70;;;1.60;;
40623;SDS011;26325;48.594;11.650;2023-07-30T04:36:03;1.90;;;1.52;;
40623;SDS011;26325;48.594;11.650;2023-07-30T04:38:29;1.52;;;1.42;;
40623;SDS011;26325;48.594;11.650;2023-07-30T04:40:59;1.70;;;1.60;;
40623;SDS011;26325;48.594;11.650;2023-07-30T04:43:25;1.95;;;1.85;;
40623;SDS011;26325;48.594;11.650;2023-07-30T04:45:56;1.75;;;1.58;;
40623;SDS011;26325;48.594;11.650;2023-07-30T04:48:21;1.80;;;1.70;;
40623;SDS011;26325;48.594;11.650;2023-07-30T04:50:49;2.55;;;1.60;;
40623;SDS011;26325;48.594;11.650;2023-07-30T04:53:15;1.70;;;1.60;;
40623;SDS011;26325;48.594;11.650;2023-07-30T04:55:43;1.75;;;1.65;;
40623;SDS011;26325;48.594;11.650;2023-07-30T04:58:11;1.83;;;1.73;;
40623;SDS011;26325;48.594;11.650;2023-07-30T05:00:39;2.35;;;1.70;;
40623;SDS011;26325;48.594;11.650;2023-07-30T05:03:08;1.73;;;1.63;;
40623;SDS011;26325;48.594;11.650;2023-07-30T05:05:35;1.60;;;1.50;;
40623;SDS011;26325;48.594;11.650;2023-07-30T05:08:01;1.60;;;1.50;;
40623;SDS011;26325;48.594;11.650;2023-07-30T05:10:26;2.08;;;1.88;;
40623;SDS011;26325;48.594;11.650;2023-07-30T05:12:52;2.00;;;1.90;;
40623;SDS011;26325;48.594;11.650;2023-07-30T05:15:20;1.90;;;1.80;;
40623;SDS011;26325;48.594;11.650;2023-07-30T05:17:45;3.67;;;2.00;;
40623;SDS011;26325;48.594;11.650;2023-07-30T05:20:11;1.98;;;1.88;;
40623;SDS011;26325;48.594;11.650;2023-07-30T05:22:37;1.85;;;1.75;;
40623;SDS011;26325;48.594;11.650;2023-07-30T05:25:02;1.92;;;1.83;;
40623;SDS011;26325;48.594;11.650;2023-07-30T05:27:28;2.28;;;1.98;;
40623;SDS011;26325;48.594;11.650;2023-07-30T05:32:22;2.33;;;2.13;;
40623;SDS011;26325;48.594;11.650;2023-07-30T05:34:47;2.08;;;1.90;;
40623;SDS011;26325;48.594;11.650;2023-07-30T05:37:13;2.28;;;2.08;;
40623;SDS011;26325;48.594;11.650;2023-07-30T05:39:39;2.08;;;1.98;;
40623;SDS011;26325;48.594;11.650;2023-07-30T05:44:30;2.58;;;2.40;;
40623;SDS011;26325;48.594;11.650;2023-07-30T05:46:55;2.38;;;2.17;;
40623;SDS011;26325;48.594;11.650;2023-07-30T05:49:21;4.70;;;2.75;;
40623;SDS011;26325;48.594;11.650;2023-07-30T05:51:49;2.38;;;2.28;;
40623;SDS011;26325;48.594;11.650;2023-07-30T05:54:14;2.63;;;2.42;;
40623;SDS011;26325;48.594;11.650;2023-07-30T05:56:40;2.28;;;2.17;;
40623;SDS011;26325;48.594;11.650;2023-07-30T05:59:08;2.22;;;2.10;;
40623;SDS011;26325;48.594;11.650;2023-07-30T06:01:33;2.50;;;2.40;;
40623;SDS011;26325;48.594;11.650;2023-07-30T06:04:01;3.53;;;2.47;;
40623;SDS011;26325;48.594;11.650;2023-07-30T06:06:26;2.90;;;2.55;;
40623;SDS011;26325;48.594;11.650;2023-07-30T06:08:54;2.60;;;2.40;;
40623;SDS011;26325;48.594;11.650;2023-07-30T06:11:20;2.58;;;2.38;;
40623;SDS011;26325;48.594;11.650;2023-07-30T06:13:46;2.42;;;2.30;;
40623;SDS011;26325;48.594;11.650;2023-07-30T06:16:14;2.50;;;2.40;;
40623;SDS011;26325;48.594;11.650;2023-07-30T06:18:40;2.58;;;2.38;;
40623;SDS011;26325;48.594;11.650;2023-07-30T06:21:07;2.42;;;2.33;;
40623;SDS011;26325;48.594;11.650;2023-07-30T06:23:33;2.90;;;2.70;;
40623;SDS011;26325;48.594;11.650;2023-07-30T06:25:59;2.95;;;2.75;;
40623;SDS011;26325;48.594;11.650;2023-07-30T06:28:25;3.60;;;2.80;;
40623;SDS011;26325;48.594;11.650;2023-07-30T06:30:50;2.72;;;2.53;;
40623;SDS011;26325;48.594;11.650;2023-07-30T06:33:16;2.80;;;2.60;;
40623;SDS011;26325;48.594;11.650;2023-07-30T06:35:42;2.53;;;2.33;;
40623;SDS011;26325;48.594;11.650;2023-07-30T06:38:08;2.75;;;2.40;;
40623;SDS011;26325;48.594;11.650;2023-07-30T06:40:34;2.70;;;2.50;;
40623;SDS011;26325;48.594;11.650;2023-07-30T06:43:00;2.85;;;2.65;;
40623;SDS011;26325;48.594;11.650;2023-07-30T06:45:25;2.60;;;2.40;;
40623;SDS011;26325;48.594;11.650;2023-07-30T06:47:51;2.72;;;2.53;;
40623;SDS011;26325;48.594;11.650;2023-07-30T06:50:19;2.50;;;2.30;;
40623;SDS011;26325;48.594;11.650;2023-07-30T06:52:44;2.50;;;2.40;;
40623;SDS011;26325;48.594;11.650;2023-07-30T06:55:10;2.63;;;2.42;;
40623;SDS011;26325;48.594;11.650;2023-07-30T06:57:35;2.85;;;2.30;;
40623;SDS011;26325;48.594;11.650;2023-07-30T07:00:01;2.95;;;2.53;;
40623;SDS011;26325;48.594;11.650;2023-07-30T07:02:28;2.90;;;2.60;;
40623;SDS011;26325;48.594;11.650;2023-07-30T07:04:54;2.88;;;2.67;;
40623;SDS011;26325;48.594;11.650;2023-07-30T07:07:22;2.90;;;2.70;;
40623;SDS011;26325;48.594;11.650;2023-07-30T07:09:50;2.53;;;2.42;;
40623;SDS011;26325;48.594;11.650;2023-07-30T07:12:16;2.97;;;2.78;;
40623;SDS011;26325;48.594;11.650;2023-07-30T07:14:42;2.97;;;2.65;;
40623;SDS011;26325;48.594;11.650;2023-07-30T07:17:08;2.72;;;2.53;;
40623;SDS011;26325;48.594;11.650;2023-07-30T07:19:36;2.72;;;2.60;;
40623;SDS011;26325;48.594;11.650;2023-07-30T07:22:05;3.03;;;2.83;;
40623;SDS011;26325;48.594;11.650;2023-07-30T07:24:31;2.92;;;2.70;;
40623;SDS011;26325;48.594;11.650;2023-07-30T07:26:59;3.15;;;2.85;;
40623;SDS011;26325;48.594;11.650;2023-07-30T07:29:25;3.25;;;2.95;;
40623;SDS011;26325;48.594;11.650;2023-07-30T07:31:50;2.92;;;2.65;;
40623;SDS011;26325;48.594;11.650;2023-07-30T07:34:16;2.30;;;2.20;;
40623;SDS011;26325;48.594;11.650;2023-07-30T07:36:41;2.67;;;2.35;;
40623;SDS011;26325;48.594;11.650;2023-07-30T07:39:07;3.55;;;2.30;;
40623;SDS011;26325;48.594;11.650;2023-07-30T07:41:33;2.22;;;2.10;;
40623;SDS011;26325;48.594;11.650;2023-07-30T07:43:58;2.47;;;2.28;;
40623;SDS011;26325;48.594;11.650;2023-07-30T07:46:24;2.58;;;2.38;;
40623;SDS011;26325;48.594;11.650;2023-07-30T07:48:51;2.90;;;2.20;;
40623;SDS011;26325;48.594;11.650;2023-07-30T07:51:17;2.63;;;2.42;;
40623;SDS011;26325;48.594;11.650;2023-07-30T07:53:45;2.20;;;2.10;;
40623;SDS011;26325;48.594;11.650;2023-07-30T07:56:10;2.85;;;2.45;;
40623;SDS011;26325;48.594;11.650;2023-07-30T07:58:36;2.60;;;2.40;;
40623;SDS011;26325;48.594;11.650;2023-07-30T08:01:02;2.80;;;2.60;;
40623;SDS011;26325;48.594;11.650;2023-07-30T08:03:27;2.90;;;2.58;;
40623;SDS011;26325;48.594;11.650;2023-07-30T08:05:53;2.42;;;2.20;;
40623;SDS011;26325;48.594;11.650;2023-07-30T08:08:19;2.28;;;2.10;;
40623;SDS011;26325;48.594;11.650;2023-07-30T08:10:44;3.40;;;2.60;;
40623;SDS011;26325;48.594;11.650;2023-07-30T08:13:13;2.25;;;2.13;;
40623;SDS011;26325;48.594;11.650;2023-07-30T08:15:39;2.50;;;2.30;;
40623;SDS011;26325;48.594;11.650;2023-07-30T08:18:05;2.70;;;2.55;;
40623;SDS011;26325;48.594;11.650;2023-07-30T08:20:30;2.97;;;2.60;;
40623;SDS011;26325;48.594;11.650;2023-07-30T08:22:56;2.42;;;2.22;;
40623;SDS011;26325;48.594;11.650;2023-07-30T08:25:21;3.25;;;2.60;;
40623;SDS011;26325;48.594;11.650;2023-07-30T08:27:47;2.10;;;2.00;;
40623;SDS011;26325;48.594;11.650;2023-07-30T08:30:12;2.72;;;2.53;;
40623;SDS011;26325;48.594;11.650;2023-07-30T08:32:38;2.83;;;2.20;;
40623;SDS011;26325;48.594;11.650;2023-07-30T08:35:04;2.50;;;2.30;;
40623;SDS011;26325;48.594;11.650;2023-07-30T08:37:30;2.38;;;2.10;;
40623;SDS011;26325;48.594;11.650;2023-07-30T08:39:56;2.50;;;2.30;;
40623;SDS011;26325;48.594;11.650;2023-07-30T08:42:24;2.10;;;2.00;;
40623;SDS011;26325;48.594;11.650;2023-07-30T08:44:49;2.10;;;2.00;;
40623;SDS011;26325;48.594;11.650;2023-07-30T08:47:17;2.45;;;2.25;;
40623;SDS011;26325;48.594;11.650;2023-07-30T08:49:43;2.50;;;2.30;;
40623;SDS011;26325;48.594;11.650;2023-07-30T08:52:09;2.78;;;1.88;;
40623;SDS011;26325;48.594;11.650;2023-07-30T08:54:37;2.00;;;1.90;;
40623;SDS011;26325;48.594;11.650;2023-07-30T08:57:05;2.13;;;1.92;;
40623;SDS011;26325;48.594;11.650;2023-07-30T08:59:42;2.20;;;1.98;;
40623;SDS011;26325;48.594;11.650;2023-07-30T09:02:20;2.00;;;1.90;;
40623;SDS011;26325;48.594;11.650;2023-07-30T09:04:56;1.80;;;1.70;;
40623;SDS011;26325;48.594;11.650;2023-07-30T09:07:25;2.00;;;1.90;;
40623;SDS011;26325;48.594;11.650;2023-07-30T09:09:53;2.00;;;1.90;;
40623;SDS011;26325;48.594;11.650;2023-07-30T09:12:19;1.80;;;1.70;;
40623;SDS011;26325;48.594;11.650;2023-07-30T09:14:46;1.83;;;1.73;;
40623;SDS011;26325;48.594;11.650;2023-07-30T09:17:19;2.10;;;1.95;;
40623;SDS011;26325;48.594;11.650;2023-07-30T09:19:44;2.05;;;1.85;;
40623;SDS011;26325;48.594;11.650;2023-07-30T09:22:12;2.28;;;1.80;;
40623;SDS011;26325;48.594;11.650;2023-07-30T09:24:44;2.00;;;1.90;;
40623;SDS011;26325;48.594;11.650;2023-07-30T09:27:10;2.65;;;1.90;;
40623;SDS011;26325;48.594;11.650;2023-07-30T09:29:38;2.47;;;2.00;;
40623;SDS011;26325;48.594;11.650;2023-07-30T09:32:17;2.15;;;1.95;;
40623;SDS011;26325;48.594;11.650;2023-07-30T09:34:45;1.80;;;1.70;;
40623;SDS011;26325;48.594;11.650;2023-07-30T09:37:10;1.73;;;1.63;;
40623;SDS011;26325;48.594;11.650;2023-07-30T09:39:37;1.77;;;1.67;;
40623;SDS011;26325;48.594;11.650;2023-07-30T09:42:06;2.08;;;1.98;;
40623;SDS011;26325;48.594;11.650;2023-07-30T09:44:32;2.03;;;1.90;;
40623;SDS011;26325;48.594;11.650;2023-07-30T09:47:00;1.80;;;1.70;;
40623;SDS011;26325;48.594;11.650;2023-07-30T09:49:30;2.17;;;2.00;;
40623;SDS011;26325;48.594;11.650;2023-07-30T09:51:57;2.22;;;1.90;;
40623;SDS011;26325;48.594;11.650;2023-07-30T09:54:23;2.05;;;1.80;;
40623;SDS011;26325;48.594;11.650;2023-07-30T09:57:02;1.88;;;1.77;;
40623;SDS011;26325;48.594;11.650;2023-07-30T09:59:29;1.70;;;1.60;;
40623;SDS011;26325;48.594;11.650;2023-07-30T10:01:55;2.00;;;1.90;;
40623;SDS011;26325;48.594;11.650;2023-07-30T10:04:22;2.10;;;2.00;;
40623;SDS011;26325;48.594;11.650;2023-07-30T10:06:58;2.05;;;1.85;;
40623;SDS011;26325;48.594;11.650;2023-07-30T10:09:30;2.47;;;2.22;;
40623;SDS011;26325;48.594;11.650;2023-07-30T10:11:59;2.53;;;1.83;;
40623;SDS011;26325;48.594;11.650;2023-07-30T10:14:26;2.08;;;1.88;;
40623;SDS011;26325;48.594;11.650;2023-07-30T10:16:59;2.00;;;1.80;;
40623;SDS011;26325;48.594;11.650;2023-07-30T10:19:28;1.85;;;1.75;;
40623;SDS011;26325;48.594;11.650;2023-07-30T10:22:22;1.92;;;1.83;;
40623;SDS011;26325;48.594;11.650;2023-07-30T10:24:59;1.88;;;1.77;;
40623;SDS011;26325;48.594;11.650;2023-07-30T10:27:38;2.10;;;1.88;;
40623;SDS011;26325;48.594;11.650;2023-07-30T10:30:09;1.98;;;1.88;;
40623;SDS011;26325;48.594;11.650;2023-07-30T10:32:41;1.90;;;1.80;;
40623;SDS011;26325;48.594;11.650;2023-07-30T10:35:46;1.92;;;1.83;;
40623;SDS011;26325;48.594;11.650;2023-07-30T10:38:28;2.10;;;1.80;;
40623;SDS011;26325;48.594;11.650;2023-07-30T10:41:15;1.83;;;1.70;;
40623;SDS011;26325;48.594;11.650;2023-07-30T10:43:50;1.98;;;1.80;;
40623;SDS011;26325;48.594;11.650;2023-07-30T10:46:17;2.10;;;2.00;;
40623;SDS011;26325;48.594;11.650;2023-07-30T10:48:45;2.00;;;1.90;;
40623;SDS011;26325;48.594;11.650;2023-07-30T10:51:16;2.65;;;1.88;;
40623;SDS011;26325;48.594;11.650;2023-07-30T10:53:47;2.17;;;1.27;;
40623;SDS011;26325;48.594;11.650;2023-07-30T10:56:16;1.90;;;1.42;;
40623;SDS011;26325;48.594;11.650;2023-07-30T10:58:43;1.73;;;1.50;;
40623;SDS011;26325;48.594;11.650;2023-07-30T11:01:15;1.30;;;1.20;;
40623;SDS011;26325;48.594;11.650;2023-07-30T11:03:40;1.77;;;1.10;;
40623;SDS011;26325;48.594;11.650;2023-07-30T11:06:10;2.38;;;1.50;;
40623;SDS011;26325;48.594;11.650;2023-07-30T11:11:09;1.25;;;1.10;;
40623;SDS011;26325;48.594;11.650;2023-07-30T11:13:48;1.60;;;1.10;;
40623;SDS011;26325;48.594;11.650;2023-07-30T11:16:14;1.30;;;1.20;;
40623;SDS011;26325;48.594;11.650;2023-07-30T11:18:46;1.80;;;1.20;;
40623;SDS011;26325;48.594;11.650;2023-07-30T11:21:15;1.63;;;1.30;;
40623;SDS011;26325;48.594;11.650;2023-07-30T11:23:43;1.40;;;1.30;;
40623;SDS011;26325;48.594;11.650;2023-07-30T11:26:17;1.30;;;1.20;;
40623;SDS011;26325;48.594;11.650;2023-07-30T11:28:44;1.30;;;1.20;;
40623;SDS011;26325;48.594;11.650;2023-07-30T11:31:12;1.27;;;1.20;;
40623;SDS011;26325;48.594;11.650;2023-07-30T11:33:46;2.08;;;1.00;;
40623;SDS011;26325;48.594;11.650;2023-07-30T11:36:20;2.15;;;1.38;;
40623;SDS011;26325;48.594;11.650;2023-07-30T11:38:49;1.40;;;1.30;;
40623;SDS011;26325;48.594;11.650;2023-07-30T11:41:18;1.40;;;1.30;;
40623;SDS011;26325;48.594;11.650;2023-07-30T11:43:45;1.80;;;1.70;;
40623;SDS011;26325;48.594;11.650;2023-07-30T11:46:15;2.50;;;1.50;;
40623;SDS011;26325;48.594;11.650;2023-07-30T11:48:49;1.40;;;1.30;;
40623;SDS011;26325;48.594;11.650;2023-07-30T11:51:31;1.80;;;1.15;;
40623;SDS011;26325;48.594;11.650;2023-07-30T11:54:00;1.40;;;1.30;;
40623;SDS011;26325;48.594;11.650;2023-07-30T11:56:28;1.42;;;1.33;;
40623;SDS011;26325;48.594;11.650;2023-07-30T11:59:06;1.40;;;1.20;;
40623;SDS011;26325;48.594;11.650;2023-07-30T12:01:33;1.40;;;1.30;;
40623;SDS011;26325;48.594;11.650;2023-07-30T12:04:01;1.60;;;1.50;;
40623;SDS011;26325;48.594;11.650;2023-07-30T12:06:42;2.40;;;1.65;;
40623;SDS011;26325;48.594;11.650;2023-07-30T12:09:15;1.77;;;1.50;;
40623;SDS011;26325;48.594;11.650;2023-07-30T12:11:53;1.73;;;1.63;;
40623;SDS011;26325;48.594;11.650;2023-07-30T12:14:27;1.58;;;1.48;;
40623;SDS011;26325;48.594;11.650;2023-07-30T12:17:00;1.60;;;1.50;;
40623;SDS011;26325;48.594;11.650;2023-07-30T12:19:31;1.60;;;1.50;;
40623;SDS011;26325;48.594;11.650;2023-07-30T12:21:56;2.00;;;1.80;;
40623;SDS011;26325;48.594;11.650;2023-07-30T12:24:22;2.25;;;2.03;;
40623;SDS011;26325;48.594;11.650;2023-07-30T12:26:49;1.80;;;1.70;;
40623;SDS011;26325;48.594;11.650;2023-07-30T12:29:15;1.50;;;1.40;;
40623;SDS011;26325;48.594;11.650;2023-07-30T12:31:41;1.67;;;1.50;;
40623;SDS011;26325;48.594;11.650;2023-07-30T12:34:06;1.50;;;1.40;;
40623;SDS011;26325;48.594;11.650;2023-07-30T12:36:41;3.20;;;1.42;;
40623;SDS011;26325;48.594;11.650;2023-07-30T12:39:13;1.50;;;1.40;;
40623;SDS011;26325;48.594;11.650;2023-07-30T12:41:38;1.45;;;1.35;;
40623;SDS011;26325;48.594;11.650;2023-07-30T12:44:04;2.92;;;2.80;;
40623;SDS011;26325;48.594;11.650;2023-07-30T12:46:30;1.50;;;1.40;;
40623;SDS011;26325;48.594;11.650;2023-07-30T12:48:58;1.55;;;1.45;;
40623;SDS011;26325;48.594;11.650;2023-07-30T12:51:32;1.20;;;1.20;;
40623;SDS011;26325;48.594;11.650;2023-07-30T12:53:58;1.70;;;1.60;;
40623;SDS011;26325;48.594;11.650;2023-07-30T12:56:24;2.13;;;2.03;;
40623;SDS011;26325;48.594;11.650;2023-07-30T12:58:49;2.40;;;1.55;;
40623;SDS011;26325;48.594;11.650;2023-07-30T13:01:19;2.75;;;1.50;;
40623;SDS011;26325;48.594;11.650;2023-07-30T13:03:48;2.00;;;1.90;;
40623;SDS011;26325;48.594;11.650;2023-07-30T13:06:15;1.50;;;1.40;;
40623;SDS011;26325;48.594;11.650;2023-07-30T13:08:41;1.60;;;1.50;;
40623;SDS011;26325;48.594;11.650;2023-07-30T13:11:07;2.05;;;1.50;;
40623;SDS011;26325;48.594;11.650;2023-07-30T13:13:32;1.55;;;1.40;;
40623;SDS011;26325;48.594;11.650;2023-07-30T13:16:00;1.65;;;1.55;;
40623;SDS011;26325;48.594;11.650;2023-07-30T13:18:27;1.50;;;1.40;;
40623;SDS011;26325;48.594;11.650;2023-07-30T13:20:53;1.50;;;1.40;;
40623;SDS011;26325;48.594;11.650;2023-07-30T13:23:21;1.58;;;1.48;;
40623;SDS011;26325;48.594;11.650;2023-07-30T13:25:46;1.73;;;1.40;;
40623;SDS011;26325;48.594;11.650;2023-07-30T13:28:12;1.60;;;1.50;;
40623;SDS011;26325;48.594;11.650;2023-07-30T13:30:38;1.50;;;1.40;;
40623;SDS011;26325;48.594;11.650;2023-07-30T13:33:03;1.52;;;1.42;;
40623;SDS011;26325;48.594;11.650;2023-07-30T13:35:29;1.42;;;1.33;;
40623;SDS011;26325;48.594;11.650;2023-07-30T13:37:54;1.55;;;1.45;;
40623;SDS011;26325;48.594;11.650;2023-07-30T13:40:20;1.88;;;1.33;;
40623;SDS011;26325;48.594;11.650;2023-07-30T13:42:45;1.52;;;1.42;;
40623;SDS011;26325;48.594;11.650;2023-07-30T13:45:11;1.90;;;1.80;;
40623;SDS011;26325;48.594;11.650;2023-07-30T13:47:37;1.50;;;1.40;;
40623;SDS011;26325;48.594;11.650;2023-07-30T13:50:02;1.75;;;1.65;;
40623;SDS011;26325;48.594;11.650;2023-07-30T13:52:28;1.90;;;1.38;;
40623;SDS011;26325;48.594;11.650;2023-07-30T13:54:54;2.03;;;1.73;;
40623;SDS011;26325;48.594;11.650;2023-07-30T13:57:23;1.60;;;1.50;;
40623;SDS011;26325;48.594;11.650;2023-07-30T13:59:52;1.80;;;1.70;;
40623;SDS011;26325;48.594;11.650;2023-07-30T14:02:20;1.50;;;1.50;;
40623;SDS011;26325;48.594;11.650;2023-07-30T14:04:45;1.85;;;1.70;;
40623;SDS011;26325;48.594;11.650;2023-07-30T14:07:13;2.10;;;1.70;;
40623;SDS011;26325;48.594;11.650;2023-07-30T14:09:39;2.00;;;1.90;;
40623;SDS011;26325;48.594;11.650;2023-07-30T14:12:05;1.67;;;1.58;;
40623;SDS011;26325;48.594;11.650;2023-07-30T14:14:31;1.55;;;1.50;;
40623;SDS011;26325;48.594;11.650;2023-07-30T14:16:57;1.55;;;1.48;;
40623;SDS011;26325;48.594;11.650;2023-07-30T14:19:22;1.90;;;1.80;;
40623;SDS011;26325;48.594;11.650;2023-07-30T14:21:48;1.90;;;1.75;;
40623;SDS011;26325;48.594;11.650;2023-07-30T14:24:14;1.70;;;1.60;;
40623;SDS011;26325;48.594;11.650;2023-07-30T14:26:39;1.60;;;1.55;;
40623;SDS011;26325;48.594;11.650;2023-07-30T14:29:07;2.30;;;2.15;;
40623;SDS011;26325;48.594;11.650;2023-07-30T14:31:33;2.00;;;1.80;;
40623;SDS011;26325;48.594;11.650;2023-07-30T14:34:01;1.75;;;1.65;;
40623;SDS011;26325;48.594;11.650;2023-07-30T14:36:29;1.75;;;1.65;;
40623;SDS011;26325;48.594;11.650;2023-07-30T14:38:54;1.95;;;1.77;;
40623;SDS011;26325;48.594;11.650;2023-07-30T14:41:23;2.10;;;1.95;;
40623;SDS011;26325;48.594;11.650;2023-07-30T14:43:48;1.63;;;1.52;;
40623;SDS011;26325;48.594;11.650;2023-07-30T14:46:14;1.90;;;1.80;;
40623;SDS011;26325;48.594;11.650;2023-07-30T14:48:41;2.45;;;1.70;;
40623;SDS011;26325;48.594;11.650;2023-07-30T14:51:09;2.42;;;1.90;;
40623;SDS011;26325;48.594;11.650;2023-07-30T14:53:37;1.83;;;1.73;;